Pagrindinis puslapis
METAR-TAF:

METAR-TAF

Oro uostai :

Anceranana, Madagaskaras

platuma: 12-21S, ilguma: 049-18E, Aukštis: 114 m

Dabartinis oras

Ataskaita buvo paskelbta 1 valandą ir 7 minutes, ne 14:00 UTC
Vėjas 14 kt iš Pietryčių
Temperatūra 26°C
Drėgmė 54%
Slėgis 1014 hPa
Matomumas 10 km arba daugiau
Mažai debesys ne aukštis 2000 ft
Išsisklaidę debesys ne aukštis 4000 ft

METAR: FMNA 171400Z 14014KT 9999 FEW020 SCT040 26/16 Q1014

Laikas: 18:07 (15:07 UTC)

Prognozė

Ataskaita buvo paskelbta 4 valandos ir 7 minutes, ne 11:00 UTC
Prognozė galioja nuo 17 metu 12 UTC su 18 metu 12 UTC
Vėjas 15 kt iš Pietryčių
Matomumas 10 km arba daugiau
Išsisklaidę debesys ne aukštis 2000 ft
Išsisklaidę debesys ne aukštis 4000 ft

TAF: FMNA 171100Z 1712/1812 14015KT 9999 SCT020 SCT040

Orai ataskaitas ir orų prognozės (METAR, TAF).

turimą stotys yra geltonos ir raudonos taškus žemėlapyje.

Perkelti pele per norėdami pamatyti stoties vardą.

Tada spustelėkite, norėdami matyti oro stebėjimo ir prognozės.

Norėdami pakeisti žemėlapį: spustelėkite ant žalios mygtukų su juodo kryžiaus žemyn,; žalią mygtuką su brūkšneliu, jei norite nutolinti; arba žalių rodyklių gretimoms žemėlapius.


METAR-TAF: